createdAt,value
2023-02-19T00:01:26.496Z,9.63
2023-02-19T00:03:55.463Z,10.35
2023-02-19T00:06:24.199Z,8.27
2023-02-19T00:08:51.151Z,8.68
2023-02-19T00:11:24.880Z,9.43
2023-02-19T00:13:54.987Z,9.52
2023-02-19T00:16:27.447Z,8.88
2023-02-19T00:18:55.186Z,12.02
2023-02-19T00:21:22.133Z,9.48
2023-02-19T00:23:53.746Z,9.63
2023-02-19T00:26:21.156Z,9.15
2023-02-19T00:28:49.672Z,9.02
2023-02-19T00:31:23.047Z,9.48
2023-02-19T00:33:53.222Z,10.15
2023-02-19T00:36:20.604Z,11.65
2023-02-19T00:38:47.775Z,10.07
2023-02-19T00:41:21.404Z,11.27
2023-02-19T00:44:02.635Z,10.75
2023-02-19T00:46:38.242Z,10.98
2023-02-19T00:49:06.841Z,10.05
2023-02-19T00:51:38.085Z,10.05
2023-02-19T00:54:05.390Z,11.02
2023-02-19T00:56:32.433Z,12.32
2023-02-19T00:58:59.095Z,10.40
2023-02-19T01:01:25.687Z,10.15
2023-02-19T01:03:52.430Z,10.27
2023-02-19T01:06:21.228Z,10.95
2023-02-19T01:08:48.172Z,10.13
2023-02-19T01:11:15.613Z,11.05
2023-02-19T01:13:43.186Z,11.25
2023-02-19T01:16:15.156Z,10.02
2023-02-19T01:18:42.726Z,14.35
2023-02-19T01:21:30.363Z,12.45
2023-02-19T01:23:57.704Z,10.27
2023-02-19T01:26:27.238Z,12.02
2023-02-19T01:28:53.940Z,11.23
2023-02-19T01:31:24.009Z,12.30
2023-02-19T01:33:55.929Z,13.80
2023-02-19T01:36:23.016Z,12.10
2023-02-19T01:38:49.728Z,14.98
2023-02-19T01:41:22.118Z,15.50
2023-02-19T01:44:08.550Z,13.70
2023-02-19T01:46:40.237Z,14.93
2023-02-19T01:49:29.175Z,14.63
2023-02-19T01:52:30.674Z,16.90
2023-02-19T01:54:58.596Z,14.85
2023-02-19T01:57:28.552Z,15.52
2023-02-19T02:00:01.641Z,18.35
2023-02-19T02:02:28.455Z,14.80
2023-02-19T02:04:57.328Z,16.65
2023-02-19T02:07:42.801Z,14.18
2023-02-19T02:10:21.680Z,15.45
2023-02-19T02:12:56.020Z,15.00
2023-02-19T02:15:26.325Z,15.98
2023-02-19T02:18:31.261Z,15.57
2023-02-19T02:21:03.746Z,19.33
2023-02-19T02:23:56.430Z,18.98
2023-02-19T02:26:41.355Z,16.67
2023-02-19T02:29:26.902Z,18.02
2023-02-19T02:32:13.524Z,16.83
2023-02-19T02:34:48.772Z,16.67
2023-02-19T02:37:16.502Z,16.83
2023-02-19T02:39:46.614Z,15.95
2023-02-19T02:42:28.623Z,17.73
2023-02-19T02:45:14.809Z,19.23
2023-02-19T02:47:54.582Z,18.08
2023-02-19T02:50:30.904Z,18.90
2023-02-19T02:53:27.245Z,17.50
2023-02-19T02:55:55.530Z,17.10
2023-02-19T02:58:24.894Z,16.48
2023-02-19T03:01:14.956Z,17.10
2023-02-19T03:03:44.060Z,17.05
2023-02-19T03:06:15.225Z,20.98
2023-02-19T03:09:00.858Z,19.15
2023-02-19T03:11:49.408Z,18.73
2023-02-19T03:14:39.026Z,19.38
2023-02-19T03:17:43.594Z,18.98
2023-02-19T03:20:15.774Z,21.85
2023-02-19T03:22:44.704Z,17.52
2023-02-19T03:25:37.773Z,21.50
2023-02-19T03:28:08.098Z,19.65
2023-02-19T03:30:40.237Z,18.52
2023-02-19T03:33:15.706Z,22.73
2023-02-19T03:35:47.274Z,20.63
2023-02-19T03:38:24.815Z,19.27
2023-02-19T03:41:07.264Z,19.73
2023-02-19T03:43:42.696Z,20.75
2023-02-19T03:46:11.564Z,22.00
2023-02-19T03:48:59.244Z,20.95
2023-02-19T03:51:46.425Z,20.20
2023-02-19T03:54:23.083Z,18.00
2023-02-19T03:56:58.900Z,19.40
2023-02-19T03:59:53.238Z,21.92
2023-02-19T04:02:31.684Z,23.08
2023-02-19T04:05:14.218Z,21.85
2023-02-19T04:07:45.850Z,19.48
2023-02-19T04:10:14.206Z,22.45
2023-02-19T04:12:44.206Z,19.33
2023-02-19T04:15:15.304Z,18.95
2023-02-19T04:17:48.903Z,18.70
2023-02-19T04:20:18.140Z,18.65
2023-02-19T04:22:45.004Z,18.30
2023-02-19T04:25:11.787Z,17.60
2023-02-19T04:27:39.315Z,20.17
2023-02-19T04:30:08.407Z,18.10
2023-02-19T04:32:35.058Z,20.90
2023-02-19T04:35:01.669Z,17.33
2023-02-19T04:37:28.242Z,19.88
2023-02-19T04:39:54.893Z,19.23
2023-02-19T04:42:21.484Z,18.27
2023-02-19T04:44:48.064Z,18.30
2023-02-19T04:47:17.630Z,19.05
2023-02-19T04:49:45.094Z,20.40
2023-02-19T04:52:12.298Z,15.63
2023-02-19T04:54:38.881Z,15.15
2023-02-19T04:57:05.526Z,17.58
2023-02-19T04:59:32.304Z,18.15
2023-02-19T05:01:58.985Z,18.95
2023-02-19T05:04:25.744Z,17.75
2023-02-19T05:06:52.375Z,21.05
2023-02-19T05:09:19.007Z,16.58
2023-02-19T05:11:45.633Z,19.95
2023-02-19T05:14:12.214Z,18.63
2023-02-19T05:16:38.795Z,17.67
2023-02-19T05:19:05.385Z,16.48
2023-02-19T05:21:32.018Z,17.40
2023-02-19T05:23:58.586Z,16.83
2023-02-19T05:26:25.271Z,15.50
2023-02-19T05:28:53.193Z,14.85
2023-02-19T05:31:20.597Z,14.00
2023-02-19T05:33:50.865Z,18.10
2023-02-19T05:36:20.214Z,18.08
2023-02-19T05:38:47.706Z,15.55
2023-02-19T05:41:17.572Z,18.05
2023-02-19T05:43:46.253Z,19.08
2023-02-19T05:46:14.819Z,15.82
2023-02-19T05:48:42.094Z,16.13
2023-02-19T05:51:11.903Z,15.25
2023-02-19T05:53:39.411Z,16.00
2023-02-19T05:56:24.006Z,19.25
2023-02-19T05:58:50.720Z,15.38
2023-02-19T06:01:19.086Z,14.18
2023-02-19T06:03:45.823Z,16.35
2023-02-19T06:06:18.036Z,16.77
2023-02-19T06:08:44.948Z,17.30
2023-02-19T06:11:11.950Z,12.68
2023-02-19T06:13:38.763Z,18.83
2023-02-19T06:16:07.200Z,18.70
2023-02-19T06:18:34.595Z,20.40
2023-02-19T06:21:09.546Z,16.48
2023-02-19T06:23:36.429Z,13.13
2023-02-19T06:26:25.056Z,14.05
2023-02-19T06:28:53.104Z,14.25
2023-02-19T06:31:21.157Z,13.18
2023-02-19T06:33:48.166Z,12.48
2023-02-19T06:36:17.339Z,16.20
2023-02-19T06:38:44.270Z,13.57
2023-02-19T06:41:12.565Z,10.02
2023-02-19T06:43:39.423Z,13.52
2023-02-19T06:46:07.870Z,12.75
2023-02-19T06:48:35.092Z,11.15
2023-02-19T06:51:02.222Z,14.82
2023-02-19T06:53:28.993Z,15.43
2023-02-19T06:56:06.872Z,11.15
2023-02-19T06:58:34.106Z,15.43
2023-02-19T07:01:00.753Z,15.80
2023-02-19T07:03:27.501Z,15.05
2023-02-19T07:05:54.328Z,16.52
2023-02-19T07:08:21.057Z,11.57
2023-02-19T07:10:56.021Z,15.50
2023-02-19T07:13:29.142Z,11.95
2023-02-19T07:16:01.395Z,17.98
2023-02-19T07:18:29.135Z,17.80
2023-02-19T07:20:55.798Z,15.57
2023-02-19T07:23:22.428Z,12.05
2023-02-19T07:25:48.980Z,15.52
2023-02-19T07:28:16.353Z,15.30
2023-02-19T07:30:42.971Z,11.32
2023-02-19T07:33:10.990Z,15.27
2023-02-19T07:35:37.768Z,18.65
2023-02-19T07:38:04.481Z,11.30
2023-02-19T07:40:31.078Z,15.77
2023-02-19T07:42:59.516Z,14.50
2023-02-19T07:45:26.142Z,16.80
2023-02-19T07:47:52.754Z,16.17
2023-02-19T07:50:19.336Z,13.90
2023-02-19T07:52:45.910Z,12.30
2023-02-19T07:55:12.524Z,14.95
2023-02-19T07:57:39.256Z,13.35
2023-02-19T08:00:06.237Z,14.38
2023-02-19T08:02:51.720Z,14.25
2023-02-19T08:05:18.320Z,17.88
2023-02-19T08:07:45.016Z,17.58
2023-02-19T08:10:30.342Z,13.15
2023-02-19T08:13:17.276Z,20.58
2023-02-19T08:15:44.650Z,11.68
2023-02-19T08:18:12.681Z,14.00
2023-02-19T08:20:39.481Z,15.77
2023-02-19T08:23:06.949Z,17.30
2023-02-19T08:25:34.066Z,16.65
2023-02-19T08:28:00.862Z,15.23
2023-02-19T08:30:28.934Z,15.35
2023-02-19T08:32:56.190Z,19.70
2023-02-19T08:35:22.999Z,20.52
2023-02-19T08:37:49.842Z,16.45
2023-02-19T08:40:16.675Z,18.92
2023-02-19T08:42:43.543Z,15.15
2023-02-19T08:45:10.182Z,14.50
2023-02-19T08:47:36.844Z,14.85
2023-02-19T08:50:05.034Z,19.08
2023-02-19T08:52:32.056Z,19.17
2023-02-19T08:54:59.286Z,17.58
2023-02-19T08:57:26.556Z,16.00
2023-02-19T08:59:53.135Z,16.52
2023-02-19T09:02:19.696Z,14.63
2023-02-19T09:04:46.288Z,15.00
2023-02-19T09:07:13.149Z,12.77
2023-02-19T09:09:40.302Z,12.30
2023-02-19T09:12:12.045Z,12.02
2023-02-19T09:14:39.416Z,13.48
2023-02-19T09:17:07.780Z,12.23
2023-02-19T09:19:35.247Z,13.23
2023-02-19T09:22:02.549Z,11.85
2023-02-19T09:24:29.369Z,11.05
2023-02-19T09:26:56.136Z,13.35
2023-02-19T09:29:25.246Z,10.25
2023-02-19T09:31:55.364Z,11.85
2023-02-19T09:34:21.970Z,10.98
2023-02-19T09:36:52.510Z,11.68
2023-02-19T09:39:19.301Z,14.30
2023-02-19T09:41:52.993Z,10.73
2023-02-19T09:44:41.368Z,7.38
2023-02-19T09:47:23.222Z,11.35
2023-02-19T09:49:53.931Z,11.10
2023-02-19T09:52:20.488Z,10.93
2023-02-19T09:54:47.490Z,11.85
2023-02-19T09:57:19.466Z,11.90
2023-02-19T09:59:52.364Z,11.82
2023-02-19T10:02:23.053Z,10.75
2023-02-19T10:04:52.055Z,12.85
2023-02-19T10:07:31.251Z,11.57
2023-02-19T10:10:21.787Z,12.10
2023-02-19T10:12:52.027Z,9.98
2023-02-19T10:15:26.573Z,11.18
2023-02-19T10:17:53.401Z,10.77
2023-02-19T10:20:26.557Z,10.10
2023-02-19T10:23:08.328Z,11.48
2023-02-19T10:25:36.209Z,9.55
2023-02-19T10:28:03.274Z,10.88
2023-02-19T10:30:35.625Z,9.25
2023-02-19T10:33:09.747Z,10.77
2023-02-19T10:35:50.809Z,10.80
2023-02-19T10:38:20.274Z,11.60
2023-02-19T10:40:47.820Z,9.05
2023-02-19T10:43:31.117Z,13.13
2023-02-19T10:46:00.306Z,9.48
2023-02-19T10:48:34.820Z,9.50
2023-02-19T10:51:07.127Z,10.85
2023-02-19T10:54:04.920Z,8.63
2023-02-19T10:56:33.532Z,11.38
2023-02-19T10:59:18.158Z,12.90
2023-02-19T11:01:57.916Z,12.38
2023-02-19T11:04:27.066Z,10.48
2023-02-19T11:06:53.743Z,14.90
2023-02-19T11:09:38.428Z,15.57
2023-02-19T11:12:06.167Z,15.05
2023-02-19T11:14:34.807Z,11.73
2023-02-19T11:17:05.478Z,12.73
2023-02-19T11:19:37.732Z,13.48
2023-02-19T11:22:41.684Z,13.02
2023-02-19T11:25:14.527Z,12.50
2023-02-19T11:27:54.360Z,12.73
2023-02-19T11:30:32.288Z,14.15
2023-02-19T11:33:24.270Z,10.77
2023-02-19T11:35:55.282Z,12.23
2023-02-19T11:38:22.073Z,12.15
2023-02-19T11:41:14.590Z,10.75
2023-02-19T11:44:16.853Z,10.05
2023-02-19T11:47:05.197Z,9.07
2023-02-19T11:49:42.540Z,13.32
2023-02-19T11:52:38.450Z,11.85
2023-02-19T11:55:18.326Z,9.48
2023-02-19T11:58:01.604Z,12.13
2023-02-19T12:00:30.117Z,11.52
2023-02-19T12:03:15.363Z,12.73
2023-02-19T12:06:00.602Z,12.45
2023-02-19T12:08:46.063Z,11.10
2023-02-19T12:12:00.903Z,12.07
2023-02-19T12:14:57.270Z,11.07
2023-02-19T12:17:32.510Z,11.65
2023-02-19T12:20:29.618Z,11.27
2023-02-19T12:23:25.734Z,11.27
2023-02-19T12:26:19.784Z,13.90
2023-02-19T12:29:17.303Z,11.30
2023-02-19T12:32:14.766Z,16.05
2023-02-19T12:34:50.285Z,15.88
2023-02-19T12:37:38.589Z,11.00
2023-02-19T12:40:30.022Z,12.65
2023-02-19T12:43:05.474Z,13.85
2023-02-19T12:45:39.903Z,13.00
2023-02-19T12:48:25.280Z,11.15
2023-02-19T12:51:16.069Z,13.77
2023-02-19T12:54:01.100Z,10.90
2023-02-19T12:56:49.308Z,11.38
2023-02-19T12:59:22.650Z,12.75
2023-02-19T13:01:56.727Z,14.10
2023-02-19T13:04:55.864Z,14.85
2023-02-19T13:07:36.950Z,11.55
2023-02-19T13:10:20.616Z,12.48
2023-02-19T13:12:50.527Z,10.55
2023-02-19T13:15:49.015Z,9.68
2023-02-19T13:18:29.833Z,9.57
2023-02-19T13:20:57.243Z,10.07
2023-02-19T13:23:49.370Z,11.35
2023-02-19T13:26:36.961Z,10.25
2023-02-19T13:29:09.146Z,11.40
2023-02-19T13:31:44.903Z,10.15
2023-02-19T13:34:55.990Z,9.45
2023-02-19T13:37:23.984Z,10.02
2023-02-19T13:39:55.543Z,8.45
2023-02-19T13:42:26.737Z,9.90
2023-02-19T13:44:57.886Z,10.80
2023-02-19T13:48:04.354Z,10.85
2023-02-19T13:50:34.195Z,8.02
2023-02-19T13:53:21.899Z,10.40
2023-02-19T13:55:52.003Z,11.18
2023-02-19T13:58:34.057Z,8.48
2023-02-19T14:01:04.332Z,11.52
2023-02-19T14:04:08.482Z,8.27
2023-02-19T14:07:03.048Z,8.43
2023-02-19T14:09:43.685Z,8.85
2023-02-19T14:12:10.310Z,10.35
2023-02-19T14:14:47.262Z,9.32
2023-02-19T14:17:36.895Z,8.77
2023-02-19T14:20:09.565Z,9.27
2023-02-19T14:22:45.152Z,9.40
2023-02-19T14:25:47.885Z,8.73
2023-02-19T14:28:43.859Z,10.48
2023-02-19T14:31:26.103Z,8.00
2023-02-19T14:33:55.254Z,9.32
2023-02-19T14:37:01.328Z,9.60
2023-02-19T14:39:31.564Z,10.27
2023-02-19T14:42:00.853Z,8.63
2023-02-19T14:44:31.452Z,9.52
2023-02-19T14:47:06.419Z,9.00
2023-02-19T14:49:42.424Z,6.75
2023-02-19T14:52:18.766Z,8.75
2023-02-19T14:54:55.303Z,9.93
2023-02-19T14:57:27.162Z,9.23
2023-02-19T14:59:59.271Z,10.57
2023-02-19T15:02:27.700Z,10.55
2023-02-19T15:04:54.961Z,11.30
2023-02-19T15:07:29.527Z,13.35
2023-02-19T15:10:04.837Z,9.90
2023-02-19T15:12:53.884Z,10.35
2023-02-19T15:15:26.800Z,12.80
2023-02-19T15:17:55.093Z,12.07
2023-02-19T15:20:25.667Z,12.57
2023-02-19T15:22:53.562Z,10.25
2023-02-19T15:25:22.158Z,10.57
2023-02-19T15:27:48.830Z,12.40
2023-02-19T15:30:18.584Z,12.45
2023-02-19T15:32:56.022Z,9.40
2023-02-19T15:35:25.005Z,9.85
2023-02-19T15:37:52.662Z,10.88
2023-02-19T15:40:29.986Z,8.65
2023-02-19T15:42:58.016Z,8.02
2023-02-19T15:45:44.030Z,7.65
2023-02-19T15:48:26.715Z,7.53
2023-02-19T15:51:04.801Z,6.47
2023-02-19T15:53:36.162Z,4.88
2023-02-19T15:56:29.285Z,4.32
2023-02-19T15:59:28.364Z,3.97
2023-02-19T16:01:56.505Z,3.10
2023-02-19T16:04:23.187Z,5.97
2023-02-19T16:06:56.638Z,3.67
2023-02-19T16:09:30.873Z,5.25
2023-02-19T16:12:00.203Z,3.97
2023-02-19T16:14:41.045Z,2.13
2023-02-19T16:17:10.393Z,3.63
2023-02-19T16:19:53.008Z,5.22
2023-02-19T16:22:24.202Z,4.38
2023-02-19T16:24:54.900Z,4.32
2023-02-19T16:27:31.894Z,3.90
2023-02-19T16:30:00.248Z,3.72
2023-02-19T16:32:27.075Z,5.20
2023-02-19T16:34:53.778Z,5.72
2023-02-19T16:37:40.782Z,4.72
2023-02-19T16:40:07.595Z,4.13
2023-02-19T16:43:03.145Z,3.13
2023-02-19T16:45:29.747Z,7.03
2023-02-19T16:47:56.344Z,4.95
2023-02-19T16:50:26.673Z,5.90
2023-02-19T16:53:02.122Z,5.32
2023-02-19T16:55:29.988Z,5.25
2023-02-19T16:57:56.569Z,4.60
2023-02-19T17:00:29.197Z,4.70
2023-02-19T17:02:59.870Z,4.05
2023-02-19T17:05:28.851Z,4.07
2023-02-19T17:07:55.434Z,4.07
2023-02-19T17:10:27.164Z,3.83
2023-02-19T17:12:55.503Z,4.60
2023-02-19T17:15:22.719Z,2.80
2023-02-19T17:17:49.406Z,4.10
2023-02-19T17:20:16.044Z,4.22
2023-02-19T17:22:42.735Z,3.42
2023-02-19T17:25:09.474Z,3.53
2023-02-19T17:27:36.395Z,3.80
2023-02-19T17:30:03.196Z,4.25
2023-02-19T17:32:29.923Z,4.10
2023-02-19T17:34:56.551Z,3.13
2023-02-19T17:37:23.126Z,4.82
2023-02-19T17:39:49.690Z,2.97
2023-02-19T17:42:16.341Z,3.33
2023-02-19T17:44:42.920Z,5.82
2023-02-19T17:47:09.506Z,7.68
2023-02-19T17:49:36.259Z,3.47
2023-02-19T17:52:02.949Z,2.88
2023-02-19T17:54:29.525Z,5.28
2023-02-19T17:56:56.189Z,2.55
2023-02-19T17:59:22.804Z,2.00
2023-02-19T18:01:49.482Z,2.30
2023-02-19T18:04:16.131Z,2.58
2023-02-19T18:06:43.051Z,2.63
2023-02-19T18:09:11.308Z,2.75
2023-02-19T18:11:37.869Z,2.85
2023-02-19T18:14:04.447Z,3.65
2023-02-19T18:16:31.025Z,3.28
2023-02-19T18:19:00.829Z,2.53
2023-02-19T18:21:27.450Z,4.22
2023-02-19T18:23:54.179Z,4.32
2023-02-19T18:26:21.453Z,2.42
2023-02-19T18:28:48.024Z,2.40
2023-02-19T18:31:15.199Z,2.78
2023-02-19T18:33:42.089Z,3.75
2023-02-19T18:36:11.341Z,2.72
2023-02-19T18:38:38.577Z,2.25
2023-02-19T18:41:05.252Z,2.70
2023-02-19T18:43:31.910Z,3.20
2023-02-19T18:45:58.565Z,4.75
2023-02-19T18:48:25.173Z,3.47
2023-02-19T18:50:51.741Z,1.90
2023-02-19T18:53:18.329Z,3.30
2023-02-19T18:55:44.911Z,4.75
2023-02-19T18:58:11.448Z,3.42
2023-02-19T19:00:38.044Z,2.55
2023-02-19T19:03:04.976Z,3.40
2023-02-19T19:05:31.740Z,3.50
2023-02-19T19:08:01.711Z,2.10
2023-02-19T19:10:29.732Z,3.40
2023-02-19T19:12:56.461Z,1.67
2023-02-19T19:15:23.722Z,2.63
2023-02-19T19:17:51.018Z,2.17
2023-02-19T19:20:19.556Z,2.78
2023-02-19T19:22:48.357Z,2.10
2023-02-19T19:25:15.205Z,4.88
2023-02-19T19:27:41.837Z,2.67
2023-02-19T19:30:09.010Z,3.45
2023-02-19T19:32:35.680Z,4.13
2023-02-19T19:35:02.380Z,2.20
2023-02-19T19:37:29.121Z,2.40
2023-02-19T19:39:56.403Z,4.75
2023-02-19T19:42:23.428Z,6.55
2023-02-19T19:44:50.057Z,6.82
2023-02-19T19:47:16.977Z,6.85
2023-02-19T19:49:46.006Z,5.32
2023-02-19T19:52:13.022Z,5.10
2023-02-19T19:54:44.601Z,4.78
2023-02-19T19:57:11.916Z,4.82
2023-02-19T19:59:39.218Z,5.32
2023-02-19T20:02:07.375Z,3.25
2023-02-19T20:04:33.975Z,3.83
2023-02-19T20:07:00.673Z,3.22
2023-02-19T20:09:28.952Z,3.33
2023-02-19T20:11:56.314Z,5.80
2023-02-19T20:14:24.922Z,3.17
2023-02-19T20:16:52.644Z,3.38
2023-02-19T20:19:20.096Z,3.13
2023-02-19T20:21:52.286Z,2.72
2023-02-19T20:24:24.926Z,3.88
2023-02-19T20:26:58.363Z,3.45
2023-02-19T20:29:28.558Z,3.33
2023-02-19T20:31:57.252Z,3.28
2023-02-19T20:34:23.891Z,2.80
2023-02-19T20:36:50.548Z,3.13
2023-02-19T20:39:18.364Z,4.07
2023-02-19T20:41:49.296Z,4.50
2023-02-19T20:44:16.912Z,6.97
2023-02-19T20:46:45.842Z,3.55
2023-02-19T20:49:13.284Z,3.00
2023-02-19T20:51:48.511Z,4.72
2023-02-19T20:54:17.545Z,2.67
2023-02-19T20:56:49.382Z,3.10
2023-02-19T20:59:17.680Z,4.82
2023-02-19T21:01:44.494Z,3.55
2023-02-19T21:04:11.109Z,3.75
2023-02-19T21:06:37.911Z,2.55
2023-02-19T21:09:05.676Z,4.93
2023-02-19T21:11:32.826Z,5.20
2023-02-19T21:13:59.552Z,3.45
2023-02-19T21:16:28.591Z,6.30
2023-02-19T21:18:55.363Z,4.57
2023-02-19T21:21:25.200Z,5.28
2023-02-19T21:23:55.574Z,6.45
2023-02-19T21:26:23.526Z,2.70
2023-02-19T21:28:53.516Z,6.25
2023-02-19T21:31:21.380Z,4.25
2023-02-19T21:33:49.031Z,5.03
2023-02-19T21:36:18.281Z,6.60
2023-02-19T21:38:44.826Z,7.85
2023-02-19T21:41:11.394Z,4.82
2023-02-19T21:43:37.968Z,8.38
2023-02-19T21:46:04.808Z,6.00
2023-02-19T21:48:31.470Z,3.92
2023-02-19T21:50:58.066Z,5.03
2023-02-19T21:53:24.674Z,4.95
2023-02-19T21:55:58.179Z,4.45
2023-02-19T21:58:25.634Z,4.88
2023-02-19T22:00:53.741Z,5.57
2023-02-19T22:03:20.432Z,7.75
2023-02-19T22:05:47.076Z,4.93
2023-02-19T22:08:15.507Z,6.60
2023-02-19T22:10:42.418Z,5.88
2023-02-19T22:13:09.870Z,5.72
2023-02-19T22:15:36.842Z,8.90
2023-02-19T22:18:03.898Z,7.65
2023-02-19T22:20:30.581Z,7.70
2023-02-19T22:22:57.172Z,9.45
2023-02-19T22:25:23.744Z,8.40
2023-02-19T22:27:50.343Z,8.55
2023-02-19T22:30:17.220Z,10.30
2023-02-19T22:32:43.822Z,8.25
2023-02-19T22:35:10.524Z,39.45
2023-02-19T22:37:37.128Z,11.88
2023-02-19T22:40:03.894Z,36.25
2023-02-19T22:42:30.559Z,26.02
2023-02-19T22:44:57.173Z,8.98
2023-02-19T22:47:23.810Z,14.65
2023-02-19T22:49:50.406Z,23.38
2023-02-19T22:52:17.139Z,23.48
2023-02-19T22:54:43.745Z,14.60
2023-02-19T22:57:10.310Z,10.70
2023-02-19T22:59:36.882Z,10.95
2023-02-19T23:02:03.599Z,10.43
2023-02-19T23:04:30.204Z,12.30
2023-02-19T23:06:56.821Z,62.70
2023-02-19T23:09:28.310Z,26.00
2023-02-19T23:12:15.162Z,12.27
2023-02-19T23:14:41.794Z,10.70
2023-02-19T23:17:08.377Z,5.03
2023-02-19T23:19:35.204Z,25.77
2023-02-19T23:22:02.254Z,14.23
2023-02-19T23:24:28.877Z,11.02
2023-02-19T23:26:55.529Z,10.20
2023-02-19T23:29:25.564Z,16.55
2023-02-19T23:31:52.939Z,12.95
2023-02-19T23:34:20.170Z,8.57
2023-02-19T23:36:48.592Z,12.13
2023-02-19T23:39:17.399Z,13.88
2023-02-19T23:41:53.367Z,13.05
2023-02-19T23:44:21.776Z,11.20
2023-02-19T23:46:49.095Z,14.00
2023-02-19T23:49:16.038Z,11.77
2023-02-19T23:51:42.679Z,8.65
2023-02-19T23:54:09.667Z,10.60
2023-02-19T23:56:36.360Z,10.88
2023-02-19T23:59:03.810Z,9.40
